createdAt,value
2019-05-21T00:01:45.120Z,2.62
2019-05-21T00:04:27.374Z,2.10
2019-05-21T00:06:45.475Z,2.55
2019-05-21T00:09:14.798Z,2.22
2019-05-21T00:11:44.094Z,1.95
2019-05-21T00:14:13.420Z,2.67
2019-05-21T00:16:42.723Z,2.20
2019-05-21T00:19:12.064Z,2.80
2019-05-21T00:21:41.363Z,2.55
2019-05-21T00:24:10.688Z,3.37
2019-05-21T00:26:40.053Z,2.20
2019-05-21T00:29:45.877Z,1.80
2019-05-21T00:32:51.774Z,2.65
2019-05-21T00:35:57.748Z,3.15
2019-05-21T00:39:04.653Z,3.12
2019-05-21T00:42:02.518Z,2.20
2019-05-21T00:44:43.234Z,2.17
2019-05-21T00:47:13.020Z,2.15
2019-05-21T00:49:42.411Z,2.75
2019-05-21T00:52:11.878Z,2.37
2019-05-21T00:54:41.199Z,7.17
2019-05-21T00:57:10.504Z,1.90
2019-05-21T00:59:39.837Z,2.55
2019-05-21T01:02:09.141Z,3.00
2019-05-21T01:04:38.456Z,3.77
2019-05-21T01:07:07.750Z,2.12
2019-05-21T01:09:37.078Z,2.10
2019-05-21T01:12:06.431Z,2.10
2019-05-21T01:14:35.751Z,2.60
2019-05-21T01:17:05.053Z,2.33
2019-05-21T01:19:34.374Z,2.77
2019-05-21T01:22:03.671Z,2.02
2019-05-21T01:24:32.988Z,2.05
2019-05-21T01:27:02.289Z,2.35
2019-05-21T01:29:31.628Z,2.27
2019-05-21T01:32:00.922Z,2.37
2019-05-21T01:34:30.295Z,2.02
2019-05-21T01:36:59.709Z,3.37
2019-05-21T01:39:29.011Z,3.20
2019-05-21T01:41:58.314Z,2.05
2019-05-21T01:44:28.685Z,3.15
2019-05-21T01:46:57.993Z,2.05
2019-05-21T01:49:27.291Z,2.50
2019-05-21T01:51:56.655Z,1.77
2019-05-21T01:54:25.972Z,2.08
2019-05-21T01:56:55.291Z,2.30
2019-05-21T01:59:24.590Z,1.95
2019-05-21T02:01:53.893Z,2.58
2019-05-21T02:04:23.190Z,2.12
2019-05-21T02:06:52.761Z,2.60
2019-05-21T02:09:22.061Z,1.50
2019-05-21T02:11:51.396Z,2.70
2019-05-21T02:14:21.762Z,2.17
2019-05-21T02:16:51.087Z,3.08
2019-05-21T02:19:20.380Z,2.17
2019-05-21T02:21:49.698Z,1.80
2019-05-21T02:24:19.000Z,3.40
2019-05-21T02:26:48.325Z,4.70
2019-05-21T02:29:17.619Z,1.80
2019-05-21T02:31:46.951Z,2.33
2019-05-21T02:34:16.273Z,4.03
2019-05-21T02:36:45.577Z,2.42
2019-05-21T02:39:14.881Z,1.70
2019-05-21T02:41:44.214Z,3.45
2019-05-21T02:44:13.501Z,5.80
2019-05-21T02:46:42.879Z,5.40
2019-05-21T02:49:12.133Z,3.27
2019-05-21T02:51:41.481Z,2.12
2019-05-21T02:54:10.783Z,2.02
2019-05-21T02:56:40.115Z,2.75
2019-05-21T02:59:09.682Z,2.50
2019-05-21T03:01:46.388Z,7.42
2019-05-21T03:04:15.757Z,4.15
2019-05-21T03:06:45.101Z,2.62
2019-05-21T03:09:14.410Z,2.02
2019-05-21T03:11:43.715Z,2.67
2019-05-21T03:14:13.021Z,2.45
2019-05-21T03:16:42.319Z,3.12
2019-05-21T03:19:16.197Z,2.00
2019-05-21T03:21:42.681Z,2.70
2019-05-21T03:24:12.053Z,2.42
2019-05-21T03:26:41.432Z,4.58
2019-05-21T03:29:10.745Z,1.80
2019-05-21T03:31:40.045Z,2.15
2019-05-21T03:34:09.391Z,2.33
2019-05-21T03:36:38.656Z,2.15
2019-05-21T03:39:07.960Z,1.90
2019-05-21T03:41:37.265Z,2.15
2019-05-21T03:44:06.567Z,2.25
2019-05-21T03:46:35.874Z,2.05
2019-05-21T03:49:05.178Z,2.65
2019-05-21T03:51:34.474Z,2.42
2019-05-21T03:54:03.799Z,1.80
2019-05-21T03:56:33.154Z,2.25
2019-05-21T03:59:02.726Z,2.50
2019-05-21T04:01:32.027Z,3.05
2019-05-21T04:04:01.364Z,2.22
2019-05-21T04:06:30.670Z,2.80
2019-05-21T04:08:59.982Z,2.33
2019-05-21T04:11:29.286Z,2.60
2019-05-21T04:13:58.600Z,2.75
2019-05-21T04:16:41.680Z,2.70
2019-05-21T04:19:15.801Z,2.17
2019-05-21T04:21:45.100Z,2.80
2019-05-21T04:24:14.403Z,2.67
2019-05-21T04:26:43.720Z,1.82
2019-05-21T04:29:13.042Z,2.47
2019-05-21T04:31:42.346Z,2.33
2019-05-21T04:34:11.676Z,2.17
2019-05-21T04:36:41.952Z,3.52
2019-05-21T04:39:11.287Z,2.08
2019-05-21T04:41:40.572Z,3.10
2019-05-21T04:44:09.897Z,1.70
2019-05-21T04:46:39.197Z,4.60
2019-05-21T04:49:08.520Z,2.62
2019-05-21T04:51:37.825Z,2.95
2019-05-21T05:22:20.182Z,15.18
2019-05-21T05:24:49.497Z,17.15
2019-05-21T05:27:18.807Z,20.85
2019-05-21T05:29:49.119Z,14.18
2019-05-21T05:32:18.427Z,11.85
2019-05-21T05:34:47.747Z,12.70
2019-05-21T05:37:17.113Z,15.88
2019-05-21T05:39:46.454Z,14.35
2019-05-21T05:42:15.740Z,9.50
2019-05-21T05:44:44.195Z,11.60
2019-05-21T05:48:21.736Z,11.30
2019-05-21T05:52:07.591Z,11.12
2019-05-21T05:54:36.910Z,10.43
2019-05-21T05:57:06.278Z,8.48
2019-05-21T05:59:35.611Z,10.28
2019-05-21T06:02:05.095Z,11.75
2019-05-21T06:04:34.394Z,10.55
2019-05-21T06:07:03.705Z,8.75
2019-05-21T06:09:34.072Z,9.18
2019-05-21T06:12:03.508Z,8.65
2019-05-21T06:14:32.938Z,8.48
2019-05-21T06:17:02.800Z,10.95
2019-05-21T06:19:32.148Z,11.05
2019-05-21T06:22:01.447Z,9.60
2019-05-21T06:24:30.747Z,9.25
2019-05-21T06:27:00.043Z,9.48
2019-05-21T06:29:29.344Z,9.60
2019-05-21T06:31:58.743Z,7.28
2019-05-21T06:34:28.009Z,9.88
2019-05-21T06:36:57.312Z,8.90
2019-05-21T06:39:26.638Z,7.27
2019-05-21T06:41:55.955Z,6.83
2019-05-21T06:44:25.253Z,6.60
2019-05-21T06:46:54.592Z,5.95
2019-05-21T06:49:23.889Z,5.42
2019-05-21T06:51:53.204Z,6.08
2019-05-21T06:54:22.524Z,6.00
2019-05-21T06:56:51.856Z,6.30
2019-05-21T06:59:21.166Z,6.47
2019-05-21T07:01:50.483Z,6.80
2019-05-21T07:04:19.803Z,7.12
2019-05-21T07:06:49.129Z,8.03
2019-05-21T07:09:18.472Z,6.10
2019-05-21T07:11:47.763Z,4.25
2019-05-21T07:14:17.067Z,4.90
2019-05-21T07:16:46.384Z,5.03
2019-05-21T07:19:15.678Z,5.30
2019-05-21T07:21:45.062Z,6.00
2019-05-21T07:24:14.367Z,7.50
2019-05-21T07:26:43.698Z,7.42
2019-05-21T07:29:13.026Z,6.33
2019-05-21T07:31:42.339Z,6.08
2019-05-21T07:34:11.634Z,4.75
2019-05-21T07:36:40.967Z,4.00
2019-05-21T07:39:10.327Z,4.10
2019-05-21T07:41:39.723Z,5.58
2019-05-21T07:44:09.026Z,6.42
2019-05-21T07:46:39.609Z,6.90
2019-05-21T07:49:09.434Z,5.92
2019-05-21T07:51:38.760Z,4.30
2019-05-21T07:54:08.089Z,3.92
2019-05-21T07:56:37.423Z,3.62
2019-05-21T07:59:06.931Z,4.23
2019-05-21T08:01:36.234Z,3.60
2019-05-21T08:04:05.530Z,5.95
2019-05-21T08:06:34.838Z,3.30
2019-05-21T08:09:13.332Z,3.22
2019-05-21T08:11:36.902Z,4.00
2019-05-21T08:14:06.258Z,3.90
2019-05-21T08:16:35.599Z,3.33
2019-05-21T08:19:05.046Z,3.62
2019-05-21T08:21:34.352Z,3.15
2019-05-21T08:24:03.665Z,4.03
2019-05-21T08:26:33.051Z,3.98
2019-05-21T08:29:02.354Z,3.85
2019-05-21T08:31:31.695Z,3.22
2019-05-21T08:34:01.964Z,3.80
2019-05-21T08:36:31.256Z,2.87
2019-05-21T08:39:00.574Z,5.33
2019-05-21T08:41:31.655Z,3.98
2019-05-21T08:44:00.974Z,3.75
2019-05-21T08:46:30.316Z,2.90
2019-05-21T08:49:02.239Z,3.10
2019-05-21T08:51:32.993Z,3.33
2019-05-21T08:54:04.144Z,2.90
2019-05-21T08:56:33.455Z,4.70
2019-05-21T08:59:02.879Z,3.90
2019-05-21T09:01:32.257Z,3.40
2019-05-21T09:04:01.583Z,4.27
2019-05-21T09:06:30.874Z,2.62
2019-05-21T09:09:00.255Z,4.17
2019-05-21T09:11:29.879Z,2.80
2019-05-21T09:13:59.270Z,3.40
2019-05-21T09:16:28.556Z,3.52
2019-05-21T09:18:57.992Z,2.65
2019-05-21T09:21:27.277Z,2.50
2019-05-21T09:23:56.615Z,2.55
2019-05-21T09:26:25.983Z,2.87
2019-05-21T09:28:55.307Z,2.77
2019-05-21T09:31:24.601Z,3.20
2019-05-21T09:33:53.918Z,3.92
2019-05-21T09:36:25.135Z,2.63
2019-05-21T09:38:54.244Z,2.50
2019-05-21T09:41:23.559Z,4.47
2019-05-21T09:43:52.878Z,2.92
2019-05-21T09:46:22.177Z,2.58
2019-05-21T09:48:51.521Z,3.40
2019-05-21T09:51:20.826Z,2.60
2019-05-21T09:53:50.154Z,2.52
2019-05-21T09:56:37.823Z,2.40
2019-05-21T09:59:11.451Z,2.52
2019-05-21T10:01:47.856Z,3.93
2019-05-21T10:04:16.371Z,2.92
2019-05-21T10:06:45.685Z,5.15
2019-05-21T10:09:16.656Z,6.23
2019-05-21T10:11:45.955Z,4.30
2019-05-21T10:14:15.272Z,5.60
2019-05-21T10:16:44.569Z,4.80
2019-05-21T10:19:13.899Z,4.62
2019-05-21T10:21:43.198Z,4.60
2019-05-21T10:24:12.516Z,5.00
2019-05-21T10:26:41.809Z,4.95
2019-05-21T10:29:11.144Z,5.58
2019-05-21T10:31:41.413Z,2.37
2019-05-21T10:34:13.276Z,2.50
2019-05-21T10:36:41.798Z,4.33
2019-05-21T10:39:11.264Z,5.87
2019-05-21T10:41:40.583Z,3.90
2019-05-21T10:44:09.943Z,2.42
2019-05-21T10:46:39.241Z,2.98
2019-05-21T10:49:08.546Z,4.53
2019-05-21T10:51:37.853Z,3.80
2019-05-21T10:54:07.591Z,3.77
2019-05-21T10:56:47.293Z,2.90
2019-05-21T10:59:09.324Z,3.22
2019-05-21T11:01:56.131Z,3.67
2019-05-21T11:04:27.172Z,5.28
2019-05-21T11:06:56.538Z,5.95
2019-05-21T11:09:26.344Z,3.80
2019-05-21T11:11:55.633Z,6.87
2019-05-21T11:14:24.937Z,4.25
2019-05-21T11:16:54.246Z,2.80
2019-05-21T11:19:23.546Z,3.45
2019-05-21T11:21:52.908Z,3.33
2019-05-21T11:24:22.239Z,4.65
2019-05-21T11:26:51.542Z,4.40
2019-05-21T11:29:20.834Z,2.58
2019-05-21T11:31:57.081Z,3.92
2019-05-21T11:34:21.346Z,3.70
2019-05-21T11:36:50.717Z,5.10
2019-05-21T11:39:20.008Z,5.00
2019-05-21T11:41:51.649Z,3.65
2019-05-21T11:44:20.308Z,4.83
2019-05-21T11:46:49.701Z,3.65
2019-05-21T11:49:19.026Z,3.27
2019-05-21T11:51:48.408Z,5.55
2019-05-21T11:54:17.703Z,4.20
2019-05-21T11:56:47.007Z,3.87
2019-05-21T11:59:16.314Z,5.28
2019-05-21T12:01:46.707Z,7.80
2019-05-21T12:04:16.002Z,4.28
2019-05-21T12:06:45.338Z,4.50
2019-05-21T12:09:14.695Z,2.47
2019-05-21T12:11:44.014Z,2.27
2019-05-21T12:14:13.315Z,66.42
2019-05-21T12:16:42.658Z,157.37
2019-05-21T12:19:12.035Z,155.00
2019-05-21T12:21:41.367Z,193.78
2019-05-21T12:24:10.675Z,179.20
2019-05-21T12:26:40.009Z,171.32
2019-05-21T12:29:09.321Z,153.45
2019-05-21T12:31:38.677Z,149.45
2019-05-21T12:34:07.980Z,144.93
2019-05-21T12:36:37.327Z,146.45
2019-05-21T12:39:14.257Z,150.32
2019-05-21T12:41:38.735Z,146.10
2019-05-21T12:44:08.024Z,145.20
2019-05-21T12:46:37.362Z,138.85
2019-05-21T12:49:06.677Z,141.28
2019-05-21T12:51:36.013Z,130.80
2019-05-21T12:54:05.360Z,109.87
2019-05-21T12:56:34.749Z,111.12
2019-05-21T12:59:04.074Z,117.57
2019-05-21T13:01:33.572Z,107.17
2019-05-21T13:04:02.923Z,120.28
2019-05-21T13:06:33.241Z,100.38
2019-05-21T13:09:07.530Z,102.70
2019-05-21T13:11:35.530Z,99.83
2019-05-21T13:14:05.175Z,90.77
2019-05-21T13:16:34.523Z,91.00
2019-05-21T13:19:04.112Z,89.07
2019-05-21T13:21:33.437Z,106.20
2019-05-21T13:24:02.818Z,97.47
2019-05-21T13:26:32.129Z,95.92
2019-05-21T13:29:01.440Z,84.95
2019-05-21T13:31:30.752Z,85.90
2019-05-21T13:34:00.105Z,77.15
2019-05-21T13:36:29.420Z,80.07
2019-05-21T13:38:58.726Z,73.25
2019-05-21T13:41:29.372Z,75.60
2019-05-21T13:43:58.687Z,74.37
2019-05-21T13:46:28.012Z,74.45
2019-05-21T13:48:57.321Z,77.50
2019-05-21T13:51:26.802Z,80.92
2019-05-21T13:53:56.136Z,65.52
2019-05-21T13:56:25.496Z,62.13
2019-05-21T13:58:55.147Z,64.32
2019-05-21T14:01:39.174Z,72.00
2019-05-21T14:03:55.981Z,59.98
2019-05-21T14:06:25.291Z,61.05
2019-05-21T14:08:54.605Z,65.90
2019-05-21T14:11:23.927Z,82.02
2019-05-21T14:13:53.309Z,61.68
2019-05-21T14:16:22.712Z,69.15
